createdAt,value
2022-12-18T00:03:37.666Z,-6.82
2022-12-18T00:08:37.020Z,-6.81
2022-12-18T00:13:37.314Z,-6.91
2022-12-18T00:18:37.314Z,-6.95
2022-12-18T00:23:37.289Z,-7.12
2022-12-18T00:28:36.790Z,-7.15
2022-12-18T00:33:37.166Z,-7.08
2022-12-18T00:38:36.967Z,-7.06
2022-12-18T00:43:36.967Z,-7.08
2022-12-18T00:48:36.503Z,-7.13
2022-12-18T00:53:36.818Z,-7.05
2022-12-18T00:58:36.392Z,-7.03
2022-12-18T01:03:36.663Z,-7.10
2022-12-18T01:08:36.248Z,-7.06
2022-12-18T01:13:36.517Z,-7.06
2022-12-18T01:18:36.106Z,-7.21
2022-12-18T01:23:36.341Z,-7.45
2022-12-18T01:28:35.999Z,-7.47
2022-12-18T01:33:36.240Z,-7.42
2022-12-18T01:38:35.906Z,-7.27
2022-12-18T01:43:36.341Z,-7.41
2022-12-18T01:48:35.747Z,-7.48
2022-12-18T01:53:35.982Z,-7.65
2022-12-18T01:58:35.618Z,-7.41
2022-12-18T02:03:35.918Z,-7.58
2022-12-18T02:08:35.493Z,-7.70
2022-12-18T02:13:35.751Z,-7.69
2022-12-18T02:18:35.417Z,-7.84
2022-12-18T02:23:35.480Z,-7.94
2022-12-18T02:28:35.291Z,-7.84
2022-12-18T02:33:35.272Z,-7.52
2022-12-18T02:38:35.128Z,-7.21
2022-12-18T02:43:35.250Z,-7.13
2022-12-18T02:48:34.985Z,-6.94
2022-12-18T02:53:34.944Z,-6.73
2022-12-18T02:58:34.959Z,-6.64
2022-12-18T03:03:34.960Z,-6.42
2022-12-18T03:08:34.775Z,-6.40
2022-12-18T03:13:34.697Z,-6.42
2022-12-18T03:18:34.676Z,-6.51
2022-12-18T03:23:34.637Z,-6.48
2022-12-18T03:28:34.543Z,-6.37
2022-12-18T03:33:34.512Z,-6.33
2022-12-18T03:38:34.410Z,-6.31
2022-12-18T03:43:34.370Z,-6.37
2022-12-18T03:48:34.412Z,-6.37
2022-12-18T03:53:34.192Z,-6.69
2022-12-18T03:58:34.220Z,-7.05
2022-12-18T04:03:34.176Z,-6.90
2022-12-18T04:08:34.017Z,-7.02
2022-12-18T04:13:33.997Z,-7.37
2022-12-18T04:18:34.037Z,-7.65
2022-12-18T04:23:33.932Z,-8.10
2022-12-18T04:28:33.765Z,-8.13
2022-12-18T04:33:33.703Z,-8.17
2022-12-18T04:38:34.491Z,-8.21
2022-12-18T04:43:33.634Z,-8.35
2022-12-18T04:48:33.505Z,-8.42
2022-12-18T04:53:33.583Z,-8.50
2022-12-18T04:58:33.389Z,-8.55
2022-12-18T05:03:33.322Z,-8.58
2022-12-18T05:08:33.310Z,-8.59
2022-12-18T05:13:33.248Z,-8.60
2022-12-18T05:18:33.155Z,-8.81
2022-12-18T05:23:33.128Z,-8.59
2022-12-18T05:28:33.045Z,-8.59
2022-12-18T05:33:32.912Z,-8.76
2022-12-18T05:38:32.921Z,-8.71
2022-12-18T05:43:32.794Z,-8.63
2022-12-18T05:48:32.800Z,-8.53
2022-12-18T05:53:32.704Z,-8.63
2022-12-18T05:58:32.607Z,-8.71
2022-12-18T06:03:34.113Z,-8.81
2022-12-18T06:08:32.555Z,-8.81
2022-12-18T06:13:32.446Z,-8.81
2022-12-18T06:18:32.470Z,-8.74
2022-12-18T06:23:32.272Z,-8.83
2022-12-18T06:28:32.256Z,-8.91
2022-12-18T06:33:32.283Z,-8.74
2022-12-18T06:38:32.069Z,-8.95
2022-12-18T06:43:32.042Z,-8.91
2022-12-18T06:48:31.952Z,-8.77
2022-12-18T06:53:31.898Z,-8.81
2022-12-18T06:58:31.883Z,-8.88
2022-12-18T07:03:31.730Z,-8.98
2022-12-18T07:08:31.727Z,-8.74
2022-12-18T07:13:31.680Z,-8.81
2022-12-18T07:18:31.600Z,-8.66
2022-12-18T07:23:31.545Z,-8.58
2022-12-18T07:28:31.651Z,-8.62
2022-12-18T07:33:31.408Z,-8.47
2022-12-18T07:38:31.268Z,-8.53
2022-12-18T07:43:31.266Z,-8.21
2022-12-18T07:48:31.225Z,-7.81
2022-12-18T07:53:31.107Z,-7.72
2022-12-18T07:58:31.041Z,-7.33
2022-12-18T08:03:30.989Z,-7.05
2022-12-18T08:08:30.941Z,-6.67
2022-12-18T08:13:30.918Z,-6.52
2022-12-18T08:18:30.848Z,-6.31
2022-12-18T08:23:30.862Z,-6.18
2022-12-18T08:28:30.661Z,-6.06
2022-12-18T08:33:30.954Z,-5.97
2022-12-18T08:38:31.336Z,-5.90
2022-12-18T08:43:32.360Z,-5.77
2022-12-18T08:48:30.445Z,-5.51
2022-12-18T08:53:34.177Z,-5.26
2022-12-18T08:58:31.335Z,-5.11
2022-12-18T09:03:30.229Z,-4.87
2022-12-18T09:08:30.132Z,-4.62
2022-12-18T09:13:30.184Z,-4.32
2022-12-18T09:18:30.108Z,-4.09
2022-12-18T09:23:30.070Z,-3.81
2022-12-18T09:28:30.019Z,-3.68
2022-12-18T09:33:29.831Z,-3.41
2022-12-18T09:38:29.766Z,-3.07
2022-12-18T09:43:29.717Z,-2.69
2022-12-18T09:48:29.618Z,-2.28
2022-12-18T09:53:29.682Z,-1.96
2022-12-18T09:58:29.519Z,-1.87
2022-12-18T10:03:29.463Z,-1.81
2022-12-18T10:08:29.356Z,-1.72
2022-12-18T10:13:29.294Z,-1.62
2022-12-18T10:18:29.290Z,-1.64
2022-12-18T10:23:29.210Z,-1.54
2022-12-18T10:28:29.134Z,-1.63
2022-12-18T10:33:29.171Z,-1.49
2022-12-18T10:38:29.001Z,-1.46
2022-12-18T10:43:28.902Z,-1.45
2022-12-18T10:48:28.893Z,-1.39
2022-12-18T10:53:28.779Z,-1.39
2022-12-18T10:58:28.747Z,-1.38
2022-12-18T11:03:28.679Z,-1.36
2022-12-18T11:08:28.632Z,-1.28
2022-12-18T11:13:28.543Z,-1.27
2022-12-18T11:18:28.468Z,-1.25
2022-12-18T11:23:28.444Z,-1.24
2022-12-18T11:28:28.330Z,-1.28
2022-12-18T11:33:28.277Z,-1.33
2022-12-18T11:38:28.230Z,-1.31
2022-12-18T11:43:28.159Z,-1.18
2022-12-18T11:48:28.110Z,-1.23
2022-12-18T11:53:28.058Z,-1.30
2022-12-18T11:58:31.696Z,-1.23
2022-12-18T12:03:27.955Z,-1.20
2022-12-18T12:08:27.852Z,-1.23
2022-12-18T12:13:27.756Z,-1.25
2022-12-18T12:18:27.727Z,-1.33
2022-12-18T12:23:39.619Z,-1.43
2022-12-18T12:28:28.608Z,-1.41
2022-12-18T12:33:27.499Z,-1.41
2022-12-18T12:38:27.440Z,-1.36
2022-12-18T12:43:27.380Z,-1.30
2022-12-18T12:48:27.362Z,-1.35
2022-12-18T12:53:27.406Z,-1.46
2022-12-18T12:58:27.579Z,-1.60
2022-12-18T13:03:27.127Z,-1.64
2022-12-18T13:08:27.431Z,-1.77
2022-12-18T13:13:27.052Z,-1.81
2022-12-18T13:18:26.969Z,-1.90
2022-12-18T13:23:26.887Z,-2.03
2022-12-18T13:28:26.841Z,-2.14
2022-12-18T13:33:26.755Z,-2.18
2022-12-18T13:38:26.689Z,-2.21
2022-12-18T13:43:26.627Z,-2.26
2022-12-18T13:48:26.546Z,-2.26
2022-12-18T13:53:26.476Z,-2.13
2022-12-18T13:58:26.449Z,-2.10
2022-12-18T14:03:26.440Z,-2.23
2022-12-18T14:08:26.280Z,-2.36
2022-12-18T14:13:26.246Z,-2.50
2022-12-18T14:18:26.205Z,-2.56
2022-12-18T14:23:26.087Z,-2.61
2022-12-18T14:28:26.058Z,-2.66
2022-12-18T14:33:25.995Z,-2.75
2022-12-18T14:38:25.898Z,-2.78
2022-12-18T14:43:25.907Z,-2.86
2022-12-18T14:48:25.848Z,-2.90
2022-12-18T14:53:25.875Z,-2.96
2022-12-18T14:58:27.244Z,-3.00
2022-12-18T15:03:25.884Z,-3.11
2022-12-18T15:08:25.572Z,-3.20
2022-12-18T15:13:25.670Z,-3.28
2022-12-18T15:18:25.556Z,-3.38
2022-12-18T15:23:25.334Z,-3.39
2022-12-18T15:28:25.329Z,-3.49
2022-12-18T15:33:25.225Z,-3.53
2022-12-18T15:38:25.227Z,-3.62
2022-12-18T15:43:25.249Z,-3.62
2022-12-18T15:48:25.027Z,-3.67
2022-12-18T15:53:25.007Z,-3.62
2022-12-18T15:58:24.936Z,-3.64
2022-12-18T16:03:24.845Z,-3.68
2022-12-18T16:08:24.798Z,-3.62
2022-12-18T16:13:24.927Z,-3.64
2022-12-18T16:18:24.649Z,-3.68
2022-12-18T16:23:24.674Z,-3.64
2022-12-18T16:28:24.500Z,-3.64
2022-12-18T16:33:24.524Z,-3.68
2022-12-18T16:38:24.394Z,-3.67
2022-12-18T16:43:24.383Z,-3.64
2022-12-18T16:48:24.254Z,-3.62
2022-12-18T16:53:24.185Z,-3.57
2022-12-18T16:58:24.194Z,-3.57
2022-12-18T17:03:24.136Z,-3.57
2022-12-18T17:08:24.110Z,-3.51
2022-12-18T17:13:25.930Z,-3.50
2022-12-18T17:18:23.911Z,-3.47
2022-12-18T17:23:23.871Z,-3.49
2022-12-18T17:28:23.739Z,-3.47
2022-12-18T17:33:23.698Z,-3.39
2022-12-18T17:38:23.614Z,-3.41
2022-12-18T17:43:23.581Z,-3.36
2022-12-18T17:48:23.536Z,-3.32
2022-12-18T17:53:23.472Z,-3.22
2022-12-18T17:58:23.616Z,-3.17
2022-12-18T18:03:23.467Z,-3.13
2022-12-18T18:08:23.343Z,-3.13
2022-12-18T18:13:23.198Z,-3.08
2022-12-18T18:18:23.227Z,-3.04
2022-12-18T18:23:23.083Z,-2.99
2022-12-18T18:28:23.063Z,-2.96
2022-12-18T18:33:23.045Z,-2.86
2022-12-18T18:38:22.998Z,-2.79
2022-12-18T18:43:22.856Z,-2.71
2022-12-18T18:48:22.834Z,-2.63
2022-12-18T18:53:23.062Z,-2.58
2022-12-18T18:58:22.657Z,-2.56
2022-12-18T19:03:22.705Z,-2.57
2022-12-18T19:08:22.558Z,-2.58
2022-12-18T19:13:22.494Z,-2.61
2022-12-18T19:18:22.390Z,-2.61
2022-12-18T19:23:22.418Z,-2.63
2022-12-18T19:28:22.601Z,-2.61
2022-12-18T19:33:51.173Z,-2.58
2022-12-18T19:38:23.181Z,-2.61
2022-12-18T19:43:22.078Z,-2.63
2022-12-18T19:48:21.995Z,-2.61
2022-12-18T19:53:21.974Z,-2.61
2022-12-18T19:58:21.874Z,-2.57
2022-12-18T20:03:30.379Z,-2.53
2022-12-18T20:08:22.771Z,-2.54
2022-12-18T20:13:21.722Z,-2.47
2022-12-18T20:18:21.646Z,-2.43
2022-12-18T20:23:21.585Z,-2.40
2022-12-18T20:28:21.572Z,-2.38
2022-12-18T20:33:21.534Z,-2.36
2022-12-18T20:38:21.406Z,-2.33
2022-12-18T20:43:21.300Z,-2.29
2022-12-18T20:48:26.474Z,-2.23
2022-12-18T20:53:22.184Z,-2.17
2022-12-18T20:58:21.137Z,-2.08
2022-12-18T21:03:21.195Z,-1.99
2022-12-18T21:08:21.026Z,-1.96
2022-12-18T21:13:21.298Z,-1.95
2022-12-18T21:18:21.173Z,-1.98
2022-12-18T21:23:20.829Z,-2.06
2022-12-18T21:28:20.741Z,-2.11
2022-12-18T21:33:20.649Z,-2.18
2022-12-18T21:38:20.563Z,-2.18
2022-12-18T21:43:20.537Z,-2.21
2022-12-18T21:48:20.453Z,-2.23
2022-12-18T21:53:20.400Z,-2.24
2022-12-18T21:58:20.536Z,-2.35
2022-12-18T22:03:20.388Z,-2.36
2022-12-18T22:08:20.208Z,-2.42
2022-12-18T22:13:20.234Z,-2.47
2022-12-18T22:18:20.142Z,-2.48
2022-12-18T22:23:20.065Z,-2.43
2022-12-18T22:28:19.988Z,-2.45
2022-12-18T22:33:19.932Z,-2.47
2022-12-18T22:38:19.833Z,-2.48
2022-12-18T22:43:19.991Z,-2.54
2022-12-18T22:48:19.706Z,-2.57
2022-12-18T22:53:19.737Z,-2.57
2022-12-18T22:58:19.691Z,-2.60
2022-12-18T23:03:19.553Z,-2.64
2022-12-18T23:08:19.459Z,-2.66
2022-12-18T23:13:19.382Z,-2.68
2022-12-18T23:18:19.295Z,-2.69
2022-12-18T23:23:19.265Z,-2.69
2022-12-18T23:28:19.162Z,-2.71
2022-12-18T23:33:19.152Z,-2.81
2022-12-18T23:38:19.145Z,-2.85
2022-12-18T23:43:19.081Z,-2.89
2022-12-18T23:48:18.923Z,-2.90
2022-12-18T23:53:18.877Z,-2.90
2022-12-18T23:58:18.864Z,-2.93
